NCAR-RAP Real-Time Weather Data

Output produced by METARs form (12 May 2021  11:14 UTC)
found at http://weather.rap.ucar.edu/surface/
 
KFMY 121053Z 16003KT 10SM CLR 24/22 A3003 RMK AO2 SLP172 T02440222
KFMY 120953Z AUTO 00000KT 10SM CLR 25/22 A3001 RMK AO2 SLP165 T02500222
KFMY 120853Z AUTO 17006KT 10SM CLR 26/22 A3001 RMK AO2 SLP163 T02560222 56009
KFMY 120753Z AUTO 13004KT 10SM CLR 25/22 A3001 RMK AO2 SLP165 T02500217
KFMY 120653Z AUTO 15003KT 10SM CLR 25/22 A3001 RMK AO2 SLP165 T02500217
KFMY 120553Z AUTO 00000KT 10SM OVC090 26/21 A3003 RMK AO2 SLP172 T02610211 10294 20256 58009
KFMY 120453Z AUTO 07003KT 10SM OVC080 26/21 A3005 RMK AO2 SLP178 T02610211 403390217
KFMY 120353Z AUTO 00000KT 10SM BKN085 27/21 A3006 RMK AO2 SLP181 T02670206
KFMY 120253Z AUTO 00000KT 10SM BKN100 27/21 A3006 RMK AO2 SLP181 T02670206 51018
KFMY 120153Z 13005KT 10SM FEW110 27/21 A3005 RMK AO2 SLP178 T02670211
KFMY 120053Z 04008KT 10SM BKN100 27/22 A3003 RMK AO2 SLP172 T02720217
KFMY 112353Z 30007KT 10SM SCT090 29/22 A3001 RMK AO2 SLP163 60004 T02940217 10333 20283 53001
KFMY 112253Z 24007KT 10SM CLR 30/22 A3000 RMK AO2 LTG DSNT NE SLP161 T03000217
KFMY 112153Z 24004KT 10SM CLR 31/22 A3000 RMK AO2 LTG DSNT E AND SE SLP160 T03060222
KFMY 112053Z 18006KT 10SM FEW050 BKN100 OVC110 28/22 A3001 RMK AO2 RAB10E48 SLP162 P0000 60004 T02830222 56012
KFMY 112015Z 31009KT 10SM -RA SCT060 BKN070 BKN100 29/21 A3001 RMK AO2 RAB10 P0000 T02940211
KFMY 112000Z 34015KT 10SM VCTS FEW060 SCT110 30/22 A3001 RMK AO2 T03000217
KFMY 111953Z 34014G22KT 10SM SCT110 31/22 A3001 RMK AO2 RAE31 SLP165 P0003 T03060217